createdAt,value
2022-12-12T00:02:43.750Z,8.30
2022-12-12T00:07:47.708Z,9.47
2022-12-12T00:12:51.261Z,11.37
2022-12-12T00:17:57.600Z,9.90
2022-12-12T00:23:01.090Z,8.07
2022-12-12T00:28:04.710Z,7.53
2022-12-12T00:33:08.272Z,9.23
2022-12-12T00:38:11.814Z,8.97
2022-12-12T00:43:15.851Z,8.63
2022-12-12T00:48:19.623Z,9.43
2022-12-12T00:53:23.650Z,8.97
2022-12-12T00:58:27.911Z,8.77
2022-12-12T01:03:34.508Z,7.07
2022-12-12T01:08:38.799Z,7.87
2022-12-12T01:13:43.837Z,7.80
2022-12-12T01:18:47.633Z,9.73
2022-12-12T01:23:51.415Z,5.60
2022-12-12T01:28:55.191Z,6.17
2022-12-12T01:33:58.901Z,5.00
2022-12-12T01:39:02.381Z,6.23
2022-12-12T01:44:29.025Z,6.90
2022-12-12T01:49:34.762Z,5.47
2022-12-12T01:54:44.650Z,5.63
2022-12-12T01:59:48.665Z,6.40
2022-12-12T02:04:52.321Z,5.57
2022-12-12T02:09:55.821Z,6.13
2022-12-12T02:14:59.070Z,5.47
2022-12-12T02:20:24.411Z,5.83
2022-12-12T02:25:36.742Z,2.60
2022-12-12T02:31:14.385Z,5.47
2022-12-12T02:36:28.042Z,4.73
2022-12-12T02:41:44.699Z,4.83
2022-12-12T02:46:55.897Z,4.17
2022-12-12T02:52:02.029Z,6.37
2022-12-12T02:57:13.741Z,4.93
2022-12-12T03:02:50.142Z,4.23
2022-12-12T03:08:29.722Z,4.43
2022-12-12T03:13:59.451Z,3.93
2022-12-12T03:19:24.810Z,3.40
2022-12-12T03:25:11.929Z,6.37
2022-12-12T03:30:18.180Z,4.63
2022-12-12T03:35:51.250Z,4.33
2022-12-12T03:40:59.321Z,2.57
2022-12-12T03:46:21.132Z,4.30
2022-12-12T03:51:29.576Z,4.83
2022-12-12T03:57:01.545Z,3.70
2022-12-12T04:02:17.877Z,4.60
2022-12-12T04:07:27.603Z,3.60
2022-12-12T04:13:04.281Z,4.13
2022-12-12T04:18:22.839Z,3.37
2022-12-12T04:23:29.203Z,5.27
2022-12-12T04:28:34.692Z,3.80
2022-12-12T04:33:51.831Z,3.03
2022-12-12T04:38:56.632Z,4.47
2022-12-12T04:44:02.687Z,3.43
2022-12-12T04:49:11.911Z,3.50
2022-12-12T04:54:27.804Z,4.73
2022-12-12T04:59:31.463Z,4.90
2022-12-12T05:05:08.450Z,4.20
2022-12-12T05:10:15.874Z,5.70
2022-12-12T05:15:21.228Z,3.90
2022-12-12T05:20:24.503Z,3.77
2022-12-12T05:25:28.073Z,3.37
2022-12-12T05:30:31.612Z,4.63
2022-12-12T05:35:34.772Z,4.90
2022-12-12T05:40:38.102Z,3.47
2022-12-12T05:45:41.572Z,4.43
2022-12-12T05:50:45.646Z,3.87
2022-12-12T05:55:51.885Z,5.43
2022-12-12T06:00:58.628Z,4.33
2022-12-12T06:06:06.603Z,3.43
2022-12-12T06:11:10.065Z,3.13
2022-12-12T06:16:16.986Z,4.87
2022-12-12T06:21:21.399Z,3.20
2022-12-12T06:26:24.875Z,5.97
2022-12-12T06:31:28.508Z,4.50
2022-12-12T06:36:32.782Z,2.33
2022-12-12T06:41:37.211Z,4.57
2022-12-12T06:46:40.833Z,6.07
2022-12-12T06:51:49.457Z,4.77
2022-12-12T06:56:52.945Z,4.80
2022-12-12T07:01:57.439Z,8.37
2022-12-12T07:07:01.072Z,4.80
2022-12-12T07:12:05.042Z,5.53
2022-12-12T07:17:08.742Z,6.70
2022-12-12T07:22:12.713Z,7.37
2022-12-12T07:27:21.523Z,8.57
2022-12-12T07:32:25.059Z,7.53
2022-12-12T07:37:28.293Z,5.00
2022-12-12T07:42:31.791Z,5.37
2022-12-12T07:47:35.192Z,9.50
2022-12-12T07:52:39.135Z,8.80
2022-12-12T07:57:42.653Z,3.70
2022-12-12T08:02:46.662Z,3.27
2022-12-12T08:07:50.436Z,5.53
2022-12-12T08:12:54.054Z,5.77
2022-12-12T08:17:57.441Z,4.20
2022-12-12T08:23:05.852Z,4.00
2022-12-12T08:28:09.889Z,4.47
2022-12-12T08:33:13.343Z,3.87
2022-12-12T08:38:16.409Z,5.00
2022-12-12T08:43:20.048Z,5.33
2022-12-12T08:48:23.431Z,4.53
2022-12-12T08:53:27.202Z,6.20
2022-12-12T08:58:30.314Z,5.27
2022-12-12T09:03:33.912Z,5.83
2022-12-12T09:08:38.513Z,5.23
2022-12-12T09:13:42.501Z,3.77
2022-12-12T09:18:48.935Z,6.37
2022-12-12T09:23:53.427Z,3.23
2022-12-12T09:28:57.154Z,4.53
2022-12-12T09:34:00.475Z,4.60
2022-12-12T09:39:04.696Z,3.93
2022-12-12T09:44:12.606Z,4.90
2022-12-12T09:49:25.958Z,3.70
2022-12-12T09:54:30.305Z,3.80
2022-12-12T09:59:41.858Z,4.93
2022-12-12T10:05:02.618Z,3.97
2022-12-12T10:10:21.051Z,3.07
2022-12-12T10:15:30.736Z,4.53
2022-12-12T10:20:44.075Z,3.00
2022-12-12T10:26:02.661Z,3.17
2022-12-12T10:31:21.284Z,3.20
2022-12-12T10:36:43.075Z,3.33
2022-12-12T10:41:56.375Z,4.57
2022-12-12T10:47:13.443Z,5.97
2022-12-12T10:52:23.045Z,4.83
2022-12-12T10:57:35.499Z,2.40
2022-12-12T11:02:43.961Z,4.77
2022-12-12T11:07:57.941Z,3.53
2022-12-12T11:13:15.008Z,2.90
2022-12-12T11:18:21.737Z,4.03
2022-12-12T11:23:28.196Z,5.30
2022-12-12T11:28:38.176Z,5.47
2022-12-12T11:33:54.798Z,4.57
2022-12-12T11:39:00.318Z,4.97
2022-12-12T11:44:03.696Z,6.40
2022-12-12T11:49:16.883Z,2.80
2022-12-12T11:54:31.598Z,4.87
2022-12-12T11:59:46.898Z,4.90
2022-12-12T12:05:05.820Z,4.07
2022-12-12T12:10:30.535Z,6.93
2022-12-12T12:15:41.212Z,3.97
2022-12-12T12:21:29.441Z,4.17
2022-12-12T12:26:52.133Z,3.63
2022-12-12T12:32:22.397Z,2.87
2022-12-12T12:37:37.448Z,3.33
2022-12-12T12:43:08.326Z,6.83
2022-12-12T12:48:38.015Z,3.53
2022-12-12T12:53:54.747Z,5.17
2022-12-12T12:59:15.475Z,4.60
2022-12-12T13:04:36.470Z,5.50
2022-12-12T13:10:01.770Z,4.90
2022-12-12T13:15:16.379Z,5.30
2022-12-12T13:20:23.493Z,6.57
2022-12-12T13:25:42.376Z,4.03
2022-12-12T13:31:14.445Z,3.00
2022-12-12T13:36:29.013Z,5.90
2022-12-12T13:42:08.866Z,6.67
2022-12-12T13:47:17.848Z,4.53
2022-12-12T13:52:30.792Z,4.23
2022-12-12T13:57:37.100Z,6.60
2022-12-12T14:02:43.427Z,2.27
2022-12-12T14:08:06.417Z,5.40
2022-12-12T14:13:33.157Z,5.63
2022-12-12T14:18:55.812Z,4.33
2022-12-12T14:24:34.411Z,5.03
2022-12-12T14:29:45.972Z,3.37
2022-12-12T14:35:20.467Z,6.13
2022-12-12T14:40:31.569Z,2.97
2022-12-12T14:45:36.111Z,8.53
2022-12-12T14:50:41.079Z,4.47
2022-12-12T14:56:00.247Z,6.03
2022-12-12T15:01:06.078Z,4.80
2022-12-12T15:06:24.764Z,6.00
2022-12-12T15:11:32.274Z,8.43
2022-12-12T15:16:48.850Z,6.23
2022-12-12T15:21:52.903Z,4.67
2022-12-12T15:26:58.951Z,7.27
2022-12-12T15:32:08.603Z,8.07
2022-12-12T15:37:28.029Z,4.97
2022-12-12T15:42:31.623Z,9.23
2022-12-12T15:47:35.245Z,4.53
2022-12-12T15:52:38.948Z,7.13
2022-12-12T15:57:48.093Z,6.80
2022-12-12T16:03:17.995Z,6.97
2022-12-12T16:08:32.301Z,10.20
2022-12-12T16:13:41.336Z,9.37
2022-12-12T16:18:44.915Z,6.80
2022-12-12T16:23:48.244Z,9.03
2022-12-12T16:28:51.694Z,6.47
2022-12-12T16:33:55.696Z,6.80
2022-12-12T16:38:58.985Z,7.70
2022-12-12T16:44:02.597Z,8.07
2022-12-12T16:49:07.416Z,8.50
2022-12-12T16:54:18.097Z,6.20
2022-12-12T16:59:21.754Z,5.00
2022-12-12T17:04:25.403Z,7.17
2022-12-12T17:09:30.228Z,5.60
2022-12-12T17:14:36.119Z,8.03
2022-12-12T17:19:39.907Z,6.47
2022-12-12T17:24:43.921Z,6.83
2022-12-12T17:29:48.196Z,8.03
2022-12-12T17:34:52.635Z,9.20
2022-12-12T17:39:56.035Z,6.13
2022-12-12T17:45:00.174Z,7.57
2022-12-12T17:50:04.894Z,7.23
2022-12-12T17:55:55.010Z,8.53
2022-12-12T18:00:33.076Z,7.43
2022-12-12T18:05:36.977Z,9.93
2022-12-12T18:10:40.418Z,8.97
2022-12-12T18:15:45.905Z,7.90
2022-12-12T18:20:51.282Z,5.60
2022-12-12T18:25:55.353Z,12.07
2022-12-12T18:30:59.205Z,8.53
2022-12-12T18:36:10.606Z,9.67
2022-12-12T18:41:17.444Z,10.13
2022-12-12T18:46:25.495Z,7.00
2022-12-12T18:51:35.706Z,8.83
2022-12-12T18:56:45.140Z,7.13
2022-12-12T19:01:52.215Z,6.30
2022-12-12T19:06:57.343Z,10.03
2022-12-12T19:12:04.004Z,10.00
2022-12-12T19:17:10.000Z,5.83
2022-12-12T19:22:40.016Z,7.10
2022-12-12T19:27:39.587Z,9.37
2022-12-12T19:32:45.686Z,10.20
2022-12-12T19:37:51.036Z,9.83
2022-12-12T19:42:57.356Z,12.07
2022-12-12T19:48:02.276Z,3.90
2022-12-12T19:53:10.736Z,11.03
2022-12-12T19:58:15.803Z,10.90
2022-12-12T20:03:22.911Z,9.37
2022-12-12T20:08:28.691Z,7.77
2022-12-12T20:13:34.382Z,11.20
2022-12-12T20:18:38.608Z,11.93
2022-12-12T20:23:47.123Z,5.40
2022-12-12T20:28:54.245Z,7.03
2022-12-12T20:34:00.255Z,13.53
2022-12-12T20:39:08.830Z,8.83
2022-12-12T20:44:14.836Z,6.67
2022-12-12T20:49:23.606Z,9.93
2022-12-12T20:54:29.778Z,12.33
2022-12-12T20:59:34.906Z,9.73
2022-12-12T21:04:42.357Z,9.57
2022-12-12T21:09:46.204Z,8.37
2022-12-12T21:14:49.903Z,12.27
2022-12-12T21:19:54.543Z,9.73
2022-12-12T21:24:59.225Z,10.20
2022-12-12T21:30:02.888Z,4.77
2022-12-12T21:35:06.676Z,7.20
2022-12-12T21:40:11.200Z,9.27
2022-12-12T21:45:16.675Z,11.30
2022-12-12T21:50:30.860Z,8.60
2022-12-12T21:55:41.906Z,9.90
2022-12-12T22:00:45.945Z,10.30
2022-12-12T22:05:49.965Z,10.13
2022-12-12T22:10:54.515Z,10.33
2022-12-12T22:16:00.062Z,8.37
2022-12-12T22:21:15.757Z,9.60
2022-12-12T22:26:24.378Z,8.30
2022-12-12T22:31:30.932Z,7.07
2022-12-12T22:36:36.656Z,9.73
2022-12-12T22:41:40.116Z,10.90
2022-12-12T22:46:45.267Z,8.30
2022-12-12T22:51:49.822Z,6.50
2022-12-12T22:56:53.488Z,7.07
2022-12-12T23:01:57.205Z,7.47
2022-12-12T23:07:00.355Z,9.03
2022-12-12T23:12:03.857Z,6.57
2022-12-12T23:17:07.300Z,9.40
2022-12-12T23:22:10.767Z,9.70
2022-12-12T23:27:14.240Z,13.73
2022-12-12T23:32:17.699Z,7.20
2022-12-12T23:37:21.327Z,11.53
2022-12-12T23:42:24.736Z,9.07
2022-12-12T23:47:28.125Z,12.53
2022-12-12T23:52:31.646Z,7.57
2022-12-12T23:57:35.317Z,7.40
